Whitleyville, Tennessee
Current Conditions -  °F | °C
As of 1:55 PM on Friday 24 Oct 2014 (Local Time) from KSRB Reporting Station
Clear Clear  
Wind Chill: 19°   Ceiling: Unl
Heat Index: 19°   Visibility: 10mi
Dew Point:   Wind: 6mph
Humidity: 43%   Direction: 360°N
Pressure: 30.07"   Gusts: NA
Location:  36.45°N, 85.74°W
Report Text: KSRB 241855Z AUTO 36005KT 10SM CLR 19/06 A3007 RMK
Loading
Personal Weather Stations






























Interactive Weather Map
Tropical Storm Tracking
New forecast layout! Learn more

10-Day Weather Forecast

Advertisements
Track Severe Weather on mobile